createdAt,value
2017-10-25T00:00:04.913Z,90.90
2017-10-25T00:02:34.561Z,91.00
2017-10-25T00:05:04.935Z,91.00
2017-10-25T00:07:34.563Z,91.00
2017-10-25T00:10:04.281Z,91.20
2017-10-25T00:12:34.832Z,91.20
2017-10-25T00:15:04.772Z,91.20
2017-10-25T00:17:34.692Z,91.20
2017-10-25T00:20:04.638Z,91.20
2017-10-25T00:22:34.286Z,90.90
2017-10-25T00:25:04.655Z,90.70
2017-10-25T00:27:34.270Z,90.80
2017-10-25T00:30:04.362Z,90.80
2017-10-25T00:32:34.558Z,90.80
2017-10-25T00:35:05.286Z,90.40
2017-10-25T00:37:35.058Z,90.40
2017-10-25T00:40:04.782Z,90.80
2017-10-25T00:42:34.732Z,90.70
2017-10-25T00:45:05.190Z,90.50
2017-10-25T00:47:35.931Z,90.60
2017-10-25T00:50:05.674Z,90.60
2017-10-25T00:52:35.380Z,90.70
2017-10-25T00:55:05.185Z,90.50
2017-10-25T00:57:34.860Z,90.70
2017-10-25T01:00:04.582Z,90.60
2017-10-25T01:02:34.817Z,90.40
2017-10-25T01:05:04.457Z,90.40
2017-10-25T01:10:17.404Z,89.60
2017-10-25T01:12:47.968Z,89.70
2017-10-25T01:15:18.306Z,89.70
2017-10-25T01:17:48.090Z,90.00
2017-10-25T01:20:18.518Z,90.10
2017-10-25T01:22:48.841Z,90.10
2017-10-25T01:25:18.537Z,90.10
2017-10-25T01:27:48.992Z,90.60
2017-10-25T01:30:19.385Z,90.50
2017-10-25T01:32:49.224Z,90.00
2017-10-25T01:35:19.452Z,90.00
2017-10-25T01:37:49.597Z,90.00
2017-10-25T01:40:19.613Z,89.70
2017-10-25T01:42:50.261Z,89.80
2017-10-25T01:45:20.345Z,89.70
2017-10-25T01:47:50.282Z,89.60
2017-10-25T01:50:20.303Z,90.00
2017-10-25T01:52:50.397Z,89.80
2017-10-25T01:55:20.607Z,89.60
2017-10-25T01:57:50.914Z,90.30
2017-10-25T02:00:22.113Z,90.20
2017-10-25T02:02:51.756Z,90.20
2017-10-25T02:05:21.434Z,90.20
2017-10-25T02:07:51.794Z,89.50
2017-10-25T02:10:21.530Z,90.20
2017-10-25T02:12:51.939Z,89.90
2017-10-25T02:15:21.971Z,89.90
2017-10-25T02:17:51.802Z,90.00
2017-10-25T02:20:22.015Z,89.40
2017-10-25T02:22:51.934Z,89.40
2017-10-25T02:25:21.906Z,89.70
2017-10-25T02:27:52.263Z,90.10
2017-10-25T02:30:22.196Z,90.10
2017-10-25T02:32:52.194Z,90.00
2017-10-25T02:35:21.837Z,90.00
2017-10-25T02:37:51.789Z,89.90
2017-10-25T02:40:21.444Z,89.20
2017-10-25T02:42:51.318Z,90.00
2017-10-25T02:45:21.079Z,89.70
2017-10-25T02:47:51.714Z,89.30
2017-10-25T02:50:22.053Z,90.00
2017-10-25T02:52:52.247Z,90.20
2017-10-25T02:55:21.949Z,90.40
2017-10-25T02:57:52.352Z,90.00
2017-10-25T03:00:22.350Z,90.00
2017-10-25T03:02:53.064Z,89.60
2017-10-25T03:05:22.817Z,89.60
2017-10-25T03:07:53.221Z,90.00
2017-10-25T03:10:24.499Z,89.50
2017-10-25T03:12:55.288Z,89.80
2017-10-25T03:15:25.109Z,89.80
2017-10-25T03:17:55.732Z,89.50
2017-10-25T03:20:26.210Z,89.50
2017-10-25T03:22:56.577Z,89.70
2017-10-25T03:25:26.192Z,89.70
2017-10-25T03:27:56.102Z,90.10
2017-10-25T03:30:25.675Z,90.00
2017-10-25T03:32:55.562Z,90.70
2017-10-25T03:35:25.187Z,91.10
2017-10-25T03:37:54.791Z,91.50
2017-10-25T03:40:25.460Z,91.90
2017-10-25T03:42:55.120Z,91.90
2017-10-25T03:45:25.544Z,91.70
2017-10-25T03:47:56.229Z,92.00
2017-10-25T03:50:25.818Z,92.00
2017-10-25T03:52:55.413Z,92.00
2017-10-25T03:55:25.814Z,91.20
2017-10-25T03:57:56.524Z,91.10
2017-10-25T04:00:26.926Z,91.10
2017-10-25T04:02:56.576Z,91.10
2017-10-25T04:05:26.517Z,91.00
2017-10-25T04:07:56.152Z,91.10
2017-10-25T04:10:25.814Z,91.10
2017-10-25T04:12:55.449Z,91.30
2017-10-25T04:15:25.843Z,90.90
2017-10-25T04:17:55.822Z,90.80
2017-10-25T04:20:25.502Z,91.20
2017-10-25T04:22:55.078Z,90.50
2017-10-25T04:25:25.473Z,90.40
2017-10-25T04:27:55.069Z,90.40
2017-10-25T04:30:25.009Z,90.60
2017-10-25T04:32:54.695Z,90.30
2017-10-25T04:35:24.377Z,90.50
2017-10-25T04:37:54.602Z,90.30
2017-10-25T04:40:24.408Z,90.70
2017-10-25T04:42:55.094Z,90.50
2017-10-25T04:45:25.806Z,91.40
2017-10-25T04:47:55.437Z,91.40
2017-10-25T04:50:25.390Z,91.30
2017-10-25T04:52:56.057Z,91.80
2017-10-25T04:55:25.746Z,91.70
2017-10-25T04:57:55.407Z,91.90
2017-10-25T05:00:25.366Z,91.60
2017-10-25T05:02:55.025Z,91.80
2017-10-25T05:05:24.702Z,91.50
2017-10-25T05:07:54.389Z,91.90
2017-10-25T05:10:24.813Z,91.80
2017-10-25T05:12:54.595Z,91.80
2017-10-25T05:15:24.239Z,91.60
2017-10-25T05:17:54.620Z,91.60
2017-10-25T05:20:24.281Z,91.60
2017-10-25T05:22:54.758Z,92.10
2017-10-25T05:25:24.433Z,92.10
2017-10-25T05:27:54.074Z,92.30
2017-10-25T05:30:24.161Z,92.60
2017-10-25T05:32:53.868Z,92.30
2017-10-25T05:35:23.546Z,92.70
2017-10-25T05:37:53.992Z,93.10
2017-10-25T05:40:23.809Z,93.10
2017-10-25T05:42:54.521Z,93.60
2017-10-25T05:45:24.943Z,93.50
2017-10-25T05:47:54.546Z,93.40
2017-10-25T05:50:24.992Z,93.70
2017-10-25T05:52:54.635Z,93.60
2017-10-25T05:55:24.321Z,93.20
2017-10-25T05:57:54.238Z,93.30
2017-10-25T06:00:24.254Z,93.30
2017-10-25T06:02:53.960Z,93.00
2017-10-25T06:05:23.665Z,92.90
2017-10-25T06:07:53.326Z,92.70
2017-10-25T06:10:22.994Z,92.60
2017-10-25T06:12:52.953Z,92.30
2017-10-25T06:15:22.691Z,92.90
2017-10-25T06:17:52.383Z,93.10
2017-10-25T06:20:22.179Z,92.70
2017-10-25T06:22:51.925Z,92.40
2017-10-25T06:25:22.739Z,92.60
2017-10-25T06:27:52.329Z,92.60
2017-10-25T06:30:21.963Z,92.90
2017-10-25T06:32:52.635Z,92.30
2017-10-25T06:35:22.765Z,92.30
2017-10-25T06:37:52.510Z,92.00
2017-10-25T06:40:22.494Z,91.90
2017-10-25T06:42:52.114Z,92.20
2017-10-25T06:45:21.960Z,91.90
2017-10-25T06:47:51.678Z,91.30
2017-10-25T06:50:21.499Z,91.30
2017-10-25T06:52:52.077Z,91.20
2017-10-25T06:55:21.718Z,90.70
2017-10-25T06:57:51.721Z,91.20
2017-10-25T07:00:22.206Z,90.80
2017-10-25T07:02:51.937Z,90.70
2017-10-25T07:05:21.644Z,89.90
2017-10-25T07:07:51.294Z,90.00
2017-10-25T07:10:21.564Z,89.10
2017-10-25T07:12:51.278Z,85.60
2017-10-25T07:15:20.998Z,85.80
2017-10-25T07:17:50.642Z,85.00
2017-10-25T07:20:20.366Z,82.60
2017-10-25T07:22:51.054Z,82.50
2017-10-25T07:25:21.503Z,83.60
2017-10-25T07:27:51.139Z,83.60
2017-10-25T07:30:21.645Z,84.20
2017-10-25T07:32:52.269Z,84.80
2017-10-25T07:35:22.752Z,84.60
2017-10-25T07:37:52.536Z,84.70
2017-10-25T07:40:22.482Z,84.00
2017-10-25T07:42:52.483Z,85.00
2017-10-25T07:45:22.948Z,84.90
2017-10-25T07:47:52.546Z,85.00
2017-10-25T07:50:22.208Z,85.10
2017-10-25T07:52:52.120Z,85.90
2017-10-25T07:55:26.229Z,85.40
2017-10-25T07:57:57.009Z,84.70
2017-10-25T08:00:26.713Z,86.60
2017-10-25T08:02:56.406Z,86.90
2017-10-25T08:05:26.998Z,87.30
2017-10-25T08:07:56.892Z,87.30
2017-10-25T08:10:26.979Z,86.50
2017-10-25T08:12:56.886Z,87.20
2017-10-25T08:15:27.296Z,86.50
2017-10-25T08:17:57.716Z,85.80
2017-10-25T08:20:28.458Z,84.90
2017-10-25T08:22:58.453Z,84.90
2017-10-25T08:25:28.071Z,84.70
2017-10-25T08:27:58.286Z,84.70
2017-10-25T08:30:27.978Z,84.50
2017-10-25T08:32:57.645Z,86.20
2017-10-25T08:35:27.588Z,84.70
2017-10-25T08:37:57.284Z,84.90
2017-10-25T08:40:26.938Z,83.50
2017-10-25T08:42:56.617Z,82.30
2017-10-25T08:45:26.343Z,82.00
2017-10-25T08:47:57.367Z,81.80
2017-10-25T08:50:26.993Z,80.90
2017-10-25T08:52:56.951Z,81.40
2017-10-25T08:55:27.510Z,77.40
2017-10-25T08:57:57.201Z,77.40
2017-10-25T09:00:27.651Z,77.90
2017-10-25T09:02:57.439Z,77.80
2017-10-25T09:05:27.597Z,75.80
2017-10-25T09:07:57.303Z,74.40
2017-10-25T09:10:27.098Z,74.00
2017-10-25T09:12:56.747Z,74.20
2017-10-25T09:15:26.386Z,77.00
2017-10-25T09:17:57.449Z,71.60
2017-10-25T09:20:27.155Z,71.50
2017-10-25T09:22:57.573Z,71.10
2017-10-25T09:25:27.436Z,71.00
2017-10-25T09:27:57.109Z,69.00
2017-10-25T09:30:27.749Z,70.10
2017-10-25T09:32:57.695Z,70.10
2017-10-25T09:35:27.832Z,74.50
2017-10-25T09:37:57.561Z,73.60
2017-10-25T09:40:27.441Z,77.30
2017-10-25T09:42:57.236Z,76.30
2017-10-25T09:45:26.993Z,76.10
2017-10-25T09:47:57.340Z,77.70
2017-10-25T09:50:27.763Z,79.40
2017-10-25T09:52:57.461Z,79.30
2017-10-25T09:55:27.896Z,79.10
2017-10-25T09:57:58.393Z,80.50
2017-10-25T10:01:48.038Z,78.70
2017-10-25T10:04:17.843Z,78.70
2017-10-25T10:06:47.685Z,78.80
2017-10-25T10:09:17.356Z,76.50
2017-10-25T10:11:48.077Z,78.00
2017-10-25T10:14:18.544Z,79.70
2017-10-25T10:16:48.379Z,79.60
2017-10-25T10:19:18.263Z,79.10
2017-10-25T10:21:48.435Z,77.90
2017-10-25T10:24:18.498Z,78.60
2017-10-25T10:26:48.181Z,77.30
2017-10-25T10:29:18.801Z,76.10
2017-10-25T10:31:48.454Z,76.00
2017-10-25T10:34:18.894Z,76.60
2017-10-25T10:36:48.561Z,76.60
2017-10-25T10:39:18.980Z,75.00
2017-10-25T10:41:49.832Z,75.20
2017-10-25T10:44:19.570Z,75.20
2017-10-25T10:46:49.164Z,75.40
2017-10-25T10:49:19.699Z,73.40
2017-10-25T10:51:49.305Z,73.30
2017-10-25T10:54:19.193Z,72.30
2017-10-25T10:56:49.104Z,73.70
2017-10-25T10:59:18.682Z,72.90
2017-10-25T11:01:48.285Z,72.80
2017-10-25T11:04:17.960Z,73.40
2017-10-25T11:06:47.865Z,71.00
2017-10-25T11:12:50.037Z,73.20
2017-10-25T11:15:19.678Z,73.10
2017-10-25T11:17:49.358Z,71.70
2017-10-25T11:20:20.055Z,72.30
2017-10-25T11:22:49.863Z,72.30
2017-10-25T11:25:19.650Z,74.80
2017-10-25T11:27:49.870Z,75.10
2017-10-25T11:30:19.561Z,72.30
2017-10-25T11:32:50.062Z,73.80
2017-10-25T11:35:20.589Z,73.80
2017-10-25T11:38:01.957Z,73.80
2017-10-25T11:40:33.073Z,73.00
2017-10-25T11:43:02.770Z,72.70
2017-10-25T11:45:32.840Z,73.70
2017-10-25T11:48:02.450Z,74.80
2017-10-25T11:50:32.096Z,74.00
2017-10-25T11:53:02.437Z,73.20
2017-10-25T11:55:32.060Z,73.20
2017-10-25T11:58:02.297Z,72.20
2017-10-25T12:00:32.620Z,72.40
2017-10-25T12:03:03.097Z,74.80
2017-10-25T12:05:32.741Z,74.70
2017-10-25T12:08:03.405Z,73.20
2017-10-25T12:10:33.073Z,74.40
2017-10-25T12:13:02.697Z,73.30
2017-10-25T12:15:32.630Z,73.70
2017-10-25T12:18:02.663Z,73.40
2017-10-25T12:20:33.198Z,76.00
2017-10-25T12:23:03.664Z,71.60
2017-10-25T12:25:33.588Z,71.60
2017-10-25T12:28:03.241Z,72.40
2017-10-25T12:30:33.208Z,74.00
2017-10-25T12:33:03.105Z,74.40
2017-10-25T12:35:32.748Z,73.90
2017-10-25T12:38:02.417Z,72.70
2017-10-25T12:40:33.278Z,71.50
2017-10-25T12:43:03.687Z,69.60
2017-10-25T12:45:34.153Z,69.00
2017-10-25T12:48:03.954Z,68.30
2017-10-25T12:51:53.776Z,71.30
2017-10-25T12:54:24.324Z,71.30
2017-10-25T12:56:54.067Z,70.30
2017-10-25T12:59:23.816Z,73.20
2017-10-25T13:01:53.802Z,71.50
2017-10-25T13:04:23.463Z,70.00
2017-10-25T13:06:54.342Z,69.90
2017-10-25T13:09:24.658Z,69.90
2017-10-25T13:13:03.506Z,72.90
2017-10-25T13:15:59.321Z,72.90
2017-10-25T13:18:47.938Z,72.80
2017-10-25T13:21:17.830Z,73.10
2017-10-25T13:23:47.501Z,75.80
2017-10-25T13:26:17.898Z,75.70
2017-10-25T13:28:47.968Z,75.60
2017-10-25T13:31:17.635Z,73.90
2017-10-25T13:33:47.234Z,76.00
2017-10-25T13:36:16.897Z,74.80
2017-10-25T13:38:46.507Z,74.10
2017-10-25T13:41:16.461Z,74.40
2017-10-25T13:43:46.133Z,75.40
2017-10-25T13:46:15.800Z,75.10
2017-10-25T13:48:46.217Z,75.60
2017-10-25T13:51:15.865Z,75.50
2017-10-25T13:53:45.522Z,75.40
2017-10-25T13:56:15.937Z,76.70
2017-10-25T13:58:45.929Z,76.60
2017-10-25T14:01:18.338Z,77.80
2017-10-25T14:03:48.467Z,76.70
2017-10-25T14:07:38.402Z,78.60
2017-10-25T14:10:08.453Z,78.50
2017-10-25T14:12:38.161Z,79.90
2017-10-25T14:15:08.063Z,79.10
2017-10-25T14:19:17.761Z,78.80
2017-10-25T14:21:48.232Z,78.40
2017-10-25T14:24:18.432Z,77.70
2017-10-25T14:29:01.520Z,78.80
2017-10-25T14:31:31.421Z,78.80
2017-10-25T14:34:01.885Z,79.80
2017-10-25T14:36:31.773Z,79.90
2017-10-25T14:39:01.795Z,81.20
2017-10-25T14:41:32.260Z,81.50
2017-10-25T14:44:02.135Z,81.30
2017-10-25T14:46:32.943Z,81.90
2017-10-25T14:49:02.700Z,81.80
2017-10-25T14:51:32.325Z,81.60
2017-10-25T14:54:02.746Z,84.70
2017-10-25T14:56:32.479Z,84.70
2017-10-25T14:59:03.317Z,88.40
2017-10-25T15:01:33.812Z,90.00
2017-10-25T15:04:03.485Z,89.90
2017-10-25T15:06:33.571Z,90.90
2017-10-25T15:09:04.057Z,91.70
2017-10-25T15:11:34.054Z,91.60
2017-10-25T15:14:03.773Z,91.60
2017-10-25T15:16:33.446Z,92.30
2017-10-25T15:19:03.462Z,92.70
2017-10-25T15:21:33.097Z,92.90
2017-10-25T15:24:03.556Z,93.00
2017-10-25T15:26:33.213Z,93.00
2017-10-25T15:29:02.840Z,93.40
2017-10-25T15:31:32.899Z,93.20
2017-10-25T15:34:03.382Z,94.50
2017-10-25T15:36:33.210Z,94.50
2017-10-25T15:39:03.266Z,94.30
2017-10-25T15:41:33.697Z,94.60
2017-10-25T15:44:03.340Z,94.60
2017-10-25T15:46:33.044Z,94.90
2017-10-25T15:49:02.694Z,95.20
2017-10-25T15:51:32.598Z,95.40
2017-10-25T15:54:02.292Z,95.60
2017-10-25T15:56:31.982Z,95.50
2017-10-25T15:59:02.365Z,96.00
2017-10-25T16:01:31.965Z,96.00
2017-10-25T16:04:01.865Z,96.50
2017-10-25T16:06:31.593Z,96.50
2017-10-25T16:09:01.257Z,97.10
2017-10-25T16:11:31.207Z,97.30
2017-10-25T16:14:01.256Z,97.50
2017-10-25T16:16:30.875Z,98.10
2017-10-25T16:19:00.907Z,98.50
2017-10-25T16:21:30.841Z,98.60
2017-10-25T16:24:00.915Z,98.50
2017-10-25T16:26:31.398Z,98.50
2017-10-25T16:29:01.070Z,98.50
2017-10-25T16:31:31.798Z,98.80
2017-10-25T16:34:02.517Z,99.40
2017-10-25T16:36:32.202Z,99.10
2017-10-25T16:39:01.811Z,99.80
2017-10-25T16:41:32.350Z,99.60
2017-10-25T16:44:03.376Z,99.80
2017-10-25T16:46:33.208Z,99.80
2017-10-25T16:49:03.406Z,99.90
2017-10-25T16:51:33.229Z,99.90
2017-10-25T16:54:05.268Z,99.90
2017-10-25T16:56:36.597Z,99.90
2017-10-25T16:59:06.241Z,99.90
2017-10-25T17:01:36.002Z,99.90
2017-10-25T17:04:06.082Z,99.70
2017-10-25T17:06:35.859Z,99.10
2017-10-25T17:09:06.599Z,99.00
2017-10-25T17:11:36.634Z,98.80
2017-10-25T17:14:06.450Z,98.70
2017-10-25T17:16:36.467Z,98.70
2017-10-25T17:19:06.481Z,98.40
2017-10-25T17:21:36.904Z,98.30
2017-10-25T17:24:07.184Z,98.40
2017-10-25T17:26:37.151Z,98.30
2017-10-25T17:29:06.813Z,98.40
2017-10-25T17:31:37.334Z,98.10
2017-10-25T17:34:07.747Z,97.90
2017-10-25T17:36:38.686Z,97.60
2017-10-25T17:39:08.551Z,97.70
2017-10-25T17:41:38.191Z,97.50
2017-10-25T17:44:09.280Z,97.40
2017-10-25T17:46:38.973Z,97.40
2017-10-25T17:49:09.669Z,97.10
2017-10-25T17:51:39.354Z,97.10
2017-10-25T17:54:09.013Z,97.20
2017-10-25T17:56:39.106Z,97.40
2017-10-25T17:59:08.897Z,97.10
2017-10-25T18:01:38.686Z,97.70
2017-10-25T18:04:08.418Z,97.40
2017-10-25T18:06:39.101Z,97.50
2017-10-25T18:09:09.848Z,97.20
2017-10-25T18:11:40.266Z,97.40
2017-10-25T18:14:10.289Z,97.40
2017-10-25T18:16:39.960Z,97.60
2017-10-25T18:19:09.893Z,97.90
2017-10-25T18:21:40.599Z,98.60
2017-10-25T18:24:10.253Z,98.60
2017-10-25T18:26:39.983Z,98.40
2017-10-25T18:29:09.910Z,98.20
2017-10-25T18:31:39.563Z,97.90
2017-10-25T18:34:09.281Z,98.40
2017-10-25T18:36:39.210Z,98.60
2017-10-25T18:39:08.867Z,98.70
2017-10-25T18:41:38.549Z,98.90
2017-10-25T18:44:08.838Z,98.90
2017-10-25T18:46:38.520Z,99.00
2017-10-25T18:49:08.506Z,98.80
2017-10-25T18:51:39.115Z,98.70
2017-10-25T18:54:10.305Z,99.10
2017-10-25T18:56:40.404Z,99.10
2017-10-25T18:59:10.316Z,98.80
2017-10-25T19:01:40.345Z,98.80
2017-10-25T19:04:10.052Z,98.90
2017-10-25T19:06:39.740Z,98.90
2017-10-25T19:09:10.478Z,99.00
2017-10-25T19:11:40.118Z,99.00
2017-10-25T19:14:12.213Z,99.00
2017-10-25T19:16:42.400Z,99.10
2017-10-25T19:19:13.155Z,98.80
2017-10-25T19:21:43.167Z,98.80
2017-10-25T19:24:13.259Z,98.70
2017-10-25T19:26:43.329Z,98.70
2017-10-25T19:29:14.773Z,98.80
2017-10-25T19:31:45.275Z,98.60
2017-10-25T19:34:15.362Z,98.60
2017-10-25T19:36:45.561Z,98.10
2017-10-25T19:39:16.277Z,97.40
2017-10-25T19:41:47.525Z,97.20
2017-10-25T19:44:17.309Z,97.20
2017-10-25T19:46:47.016Z,97.40
2017-10-25T19:49:17.474Z,97.60
2017-10-25T19:51:49.371Z,98.20
2017-10-25T19:54:19.359Z,98.20
2017-10-25T19:56:50.305Z,98.90
2017-10-25T19:59:20.962Z,98.90
2017-10-25T20:01:50.858Z,99.00
2017-10-25T20:04:22.223Z,99.60
2017-10-25T20:06:51.882Z,99.60
2017-10-25T20:09:22.093Z,99.50
2017-10-25T20:11:52.602Z,99.30
2017-10-25T20:14:23.047Z,99.40
2017-10-25T20:16:52.638Z,99.20
2017-10-25T20:19:22.936Z,99.20
2017-10-25T20:21:52.907Z,99.00
2017-10-25T20:24:23.599Z,99.60
2017-10-25T20:26:54.170Z,99.60
2017-10-25T20:29:24.944Z,99.10
2017-10-25T20:31:55.419Z,98.90
2017-10-25T20:34:25.408Z,98.90
2017-10-25T20:36:55.324Z,99.20
2017-10-25T20:39:26.191Z,99.10
2017-10-25T20:41:56.096Z,99.00
2017-10-25T20:44:25.758Z,99.20
2017-10-25T20:46:55.537Z,98.90
2017-10-25T20:49:25.185Z,98.80
2017-10-25T20:51:55.715Z,98.70
2017-10-25T20:54:26.399Z,99.00
2017-10-25T20:59:25.719Z,99.10
2017-10-25T21:01:55.966Z,99.10
2017-10-25T21:04:25.619Z,99.50
2017-10-25T21:06:55.264Z,99.60
2017-10-25T21:09:24.942Z,99.90
2017-10-25T21:11:54.567Z,99.90
2017-10-25T21:14:24.587Z,99.60
2017-10-25T21:16:54.248Z,99.40
2017-10-25T21:19:25.371Z,99.30
2017-10-25T21:21:55.065Z,99.30
2017-10-25T21:24:24.727Z,99.10
2017-10-25T21:26:55.425Z,99.20
2017-10-25T21:29:36.021Z,99.10
2017-10-25T21:32:06.698Z,99.90
2017-10-25T21:34:36.302Z,99.90
2017-10-25T21:37:06.233Z,99.90
2017-10-25T21:39:36.159Z,99.90
2017-10-25T21:42:05.761Z,99.90
2017-10-25T21:44:35.415Z,99.90
2017-10-25T21:47:05.403Z,99.90
2017-10-25T21:49:35.017Z,99.90
2017-10-25T21:52:04.735Z,99.90
2017-10-25T21:54:35.383Z,99.90
2017-10-25T21:57:05.028Z,99.90
2017-10-25T21:59:34.682Z,99.90
2017-10-25T22:02:05.125Z,99.90
2017-10-25T22:04:34.765Z,99.90
2017-10-25T22:07:04.973Z,99.90
2017-10-25T22:09:34.718Z,99.90
2017-10-25T22:12:04.739Z,99.90
2017-10-25T22:14:34.669Z,99.90
2017-10-25T22:17:05.110Z,99.90
2017-10-25T22:19:35.516Z,99.90
2017-10-25T22:22:05.145Z,99.90
2017-10-25T22:24:34.811Z,99.90
2017-10-25T22:27:04.773Z,99.90
2017-10-25T22:29:34.718Z,99.90
2017-10-25T22:32:04.914Z,99.90
2017-10-25T22:34:34.946Z,99.70
2017-10-25T22:37:04.923Z,99.50
2017-10-25T22:39:36.053Z,99.40
2017-10-25T22:42:05.936Z,99.30
2017-10-25T22:44:35.984Z,99.40
2017-10-25T22:47:06.565Z,99.10
2017-10-25T22:49:36.313Z,99.50
2017-10-25T22:52:06.142Z,99.30
2017-10-25T22:54:35.787Z,99.20
2017-10-25T22:57:06.224Z,99.20
2017-10-25T22:59:36.135Z,99.20
2017-10-25T23:02:05.846Z,99.20
2017-10-25T23:05:38.218Z,99.40
2017-10-25T23:08:08.620Z,99.70
2017-10-25T23:10:38.388Z,99.80
2017-10-25T23:13:09.128Z,99.70
2017-10-25T23:15:39.473Z,99.70
2017-10-25T23:18:09.307Z,99.60
2017-10-25T23:20:40.573Z,99.50
2017-10-25T23:23:11.093Z,99.50
2017-10-25T23:25:40.955Z,99.70
2017-10-25T23:28:10.563Z,99.60
2017-10-25T23:30:40.197Z,99.60
2017-10-25T23:33:09.793Z,99.70
2017-10-25T23:35:39.679Z,99.90
2017-10-25T23:38:09.303Z,99.90
2017-10-25T23:40:39.166Z,99.70
2017-10-25T23:43:11.942Z,99.90
2017-10-25T23:45:42.705Z,99.90
2017-10-25T23:48:13.074Z,99.90
2017-10-25T23:50:43.258Z,99.90
2017-10-25T23:53:13.059Z,99.90
2017-10-25T23:55:43.702Z,99.90
2017-10-25T23:58:13.344Z,99.90
